createdAt,value
2022-12-19T00:04:21.900Z,101120
2022-12-19T00:10:29.252Z,101105
2022-12-19T00:16:39.353Z,101115
2022-12-19T00:35:58.177Z,101115
2022-12-19T00:42:03.848Z,101104
2022-12-19T00:55:09.326Z,101078
2022-12-19T01:01:46.321Z,101070
2022-12-19T01:08:28.160Z,101038
2022-12-19T02:15:55.799Z,100988
2022-12-19T02:35:16.677Z,100965
2022-12-19T02:41:53.670Z,100956
2022-12-19T03:22:08.993Z,100899
2022-12-19T03:34:46.051Z,100896
2022-12-19T03:40:52.049Z,100898
2022-12-19T03:53:42.739Z,100879
2022-12-19T04:01:26.936Z,100888
2022-12-19T04:14:43.685Z,100877
2022-12-19T04:21:25.043Z,100877
2022-12-19T04:27:44.688Z,100865
2022-12-19T04:33:55.844Z,100861
2022-12-19T04:40:10.190Z,100873
2022-12-19T04:46:30.733Z,100864
2022-12-19T04:52:57.036Z,100877
2022-12-19T04:59:35.542Z,100875
2022-12-19T05:12:30.012Z,100881
2022-12-19T05:18:36.098Z,100855
2022-12-19T05:37:58.159Z,100851
2022-12-19T05:44:13.199Z,100846
2022-12-19T06:03:33.788Z,100828
2022-12-19T06:09:29.459Z,100852
2022-12-19T06:15:21.134Z,100855
2022-12-19T06:21:12.946Z,100872
2022-12-19T06:27:08.906Z,100879
2022-12-19T06:33:01.645Z,100869
2022-12-19T06:38:57.605Z,100879
2022-12-19T06:44:51.007Z,100887
2022-12-19T06:50:44.280Z,100882
2022-12-19T06:56:37.719Z,100885
2022-12-19T07:02:31.411Z,100873
2022-12-19T07:08:39.043Z,100859
2022-12-19T07:14:30.177Z,100857
2022-12-19T07:20:27.657Z,100886
2022-12-19T07:26:30.038Z,100882
2022-12-19T07:32:20.793Z,100878
2022-12-19T07:38:11.591Z,100872
2022-12-19T07:44:06.734Z,100886
2022-12-19T07:50:11.702Z,100893
2022-12-19T07:56:04.661Z,100904
2022-12-19T08:02:11.989Z,100906
2022-12-19T08:08:03.750Z,100915
2022-12-19T08:13:55.243Z,100901
2022-12-19T08:19:47.679Z,100891
2022-12-19T08:25:38.396Z,100903
2022-12-19T08:31:29.634Z,100889
2022-12-19T08:37:22.059Z,100895
2022-12-19T08:43:13.874Z,100887
2022-12-19T08:49:08.288Z,100871
2022-12-19T08:55:00.882Z,100869
2022-12-19T09:01:07.410Z,100872
2022-12-19T09:06:58.867Z,100853
2022-12-19T09:12:59.419Z,100874
2022-12-19T09:18:55.218Z,100866
2022-12-19T09:24:45.898Z,100865
2022-12-19T09:30:40.754Z,100874
2022-12-19T09:36:35.266Z,100877
2022-12-19T09:42:43.910Z,100862
2022-12-19T09:48:37.422Z,100850
2022-12-19T09:54:43.592Z,100831
2022-12-19T10:00:38.868Z,100834
2022-12-19T10:08:08.650Z,100838
2022-12-19T10:13:56.883Z,100824
2022-12-19T10:19:51.506Z,100839
2022-12-19T10:25:42.066Z,100818
2022-12-19T10:31:42.123Z,100814
2022-12-19T10:37:51.385Z,100805
2022-12-19T10:43:48.704Z,100793
2022-12-19T10:49:40.379Z,100770
2022-12-19T10:55:39.917Z,100782
2022-12-19T11:01:34.829Z,100790
2022-12-19T11:07:29.075Z,100791
2022-12-19T11:37:58.867Z,100774
2022-12-19T11:43:51.695Z,100773
2022-12-19T11:49:45.653Z,100788
2022-12-19T11:55:36.923Z,100791
2022-12-19T12:01:28.600Z,100808
2022-12-19T12:19:43.273Z,100797
2022-12-19T12:38:38.441Z,100763
2022-12-19T12:44:45.777Z,100772
2022-12-19T12:50:37.547Z,100775
2022-12-19T12:56:30.174Z,100768
2022-12-19T13:02:23.519Z,100770
2022-12-19T13:08:16.117Z,100756
2022-12-19T13:14:07.447Z,100756
2022-12-19T13:19:58.831Z,100758
2022-12-19T13:26:01.792Z,100750
2022-12-19T13:31:54.294Z,100751
2022-12-19T13:40:18.630Z,100737
2022-12-19T13:46:25.072Z,100753
2022-12-19T13:52:26.378Z,100761
2022-12-19T13:58:20.921Z,100783
2022-12-19T14:04:25.677Z,100783
2022-12-19T14:14:06.723Z,100772
2022-12-19T14:22:14.524Z,100752
2022-12-19T14:28:36.517Z,100740
2022-12-19T14:36:20.001Z,100730
2022-12-19T14:42:13.933Z,100722
2022-12-19T14:55:30.466Z,100718
2022-12-19T15:02:49.538Z,100699
2022-12-19T15:11:35.755Z,100687
2022-12-19T15:18:38.933Z,100662
2022-12-19T15:24:30.346Z,100665
2022-12-19T15:30:21.691Z,100680
2022-12-19T15:36:13.307Z,100678
2022-12-19T15:42:05.654Z,100684
2022-12-19T15:47:57.618Z,100688
2022-12-19T15:53:53.528Z,100687
2022-12-19T16:00:35.013Z,100673
2022-12-19T16:06:25.828Z,100668
2022-12-19T16:12:19.416Z,100657
2022-12-19T16:18:10.357Z,100679
2022-12-19T16:24:04.203Z,100664
2022-12-19T16:29:58.843Z,100657
2022-12-19T16:36:20.251Z,100638
2022-12-19T16:42:11.208Z,100629
2022-12-19T16:48:05.997Z,100621
2022-12-19T16:53:56.574Z,100616
2022-12-19T16:59:50.818Z,100619
2022-12-19T17:05:40.753Z,100617
2022-12-19T17:11:31.679Z,100636
2022-12-19T17:17:21.917Z,100657
2022-12-19T17:23:12.481Z,100681
2022-12-19T17:29:02.718Z,100680
2022-12-19T17:34:52.985Z,100675
2022-12-19T17:40:44.290Z,100677
2022-12-19T17:46:35.696Z,100681
2022-12-19T17:52:26.418Z,100675
2022-12-19T17:58:16.321Z,100707
2022-12-19T18:04:08.123Z,100705
2022-12-19T18:09:58.119Z,100690
2022-12-19T18:15:48.958Z,100678
2022-12-19T18:21:40.183Z,100659
2022-12-19T18:27:31.310Z,100653
2022-12-19T18:33:22.276Z,100650
2022-12-19T18:39:12.885Z,100652
2022-12-19T18:45:04.467Z,100654
2022-12-19T18:50:53.693Z,100637
2022-12-19T18:56:48.114Z,100631
2022-12-19T19:02:40.842Z,100660
2022-12-19T19:08:32.219Z,100647
2022-12-19T19:14:24.270Z,100654
2022-12-19T19:20:14.632Z,100645
2022-12-19T19:26:04.803Z,100637
2022-12-19T19:31:55.870Z,100664
2022-12-19T19:37:46.501Z,100676
2022-12-19T19:43:39.470Z,100671
2022-12-19T19:49:29.612Z,100671
2022-12-19T19:55:20.864Z,100696
2022-12-19T20:01:12.645Z,100698
2022-12-19T20:07:03.931Z,100693
2022-12-19T20:12:55.209Z,100672
2022-12-19T20:18:45.966Z,100676
2022-12-19T20:24:35.256Z,100675
2022-12-19T20:30:24.765Z,100672
2022-12-19T20:36:15.488Z,100683
2022-12-19T20:42:08.367Z,100699
2022-12-19T20:47:59.545Z,100713
2022-12-19T20:53:50.958Z,100704
2022-12-19T20:59:41.305Z,100699
2022-12-19T21:05:32.855Z,100703
2022-12-19T21:11:23.396Z,100701
2022-12-19T21:17:14.086Z,100696
2022-12-19T21:23:05.985Z,100680
2022-12-19T21:28:55.676Z,100668
2022-12-19T21:34:48.329Z,100674
2022-12-19T21:40:41.686Z,100685
2022-12-19T21:46:34.322Z,100686
2022-12-19T21:52:24.712Z,100683
2022-12-19T21:58:21.526Z,100684
2022-12-19T22:59:33.909Z,100645
2022-12-19T23:20:39.192Z,100605
